Résultats de la compétition "6 jours de l'Aveyron - Etape 3" du 05-08-2008 organisée par le comité départemental du 12 - Aveyron
     
  Télécharger le fichier CSV.  
     
     

 Circuit "Q"

Licence Nom Prénom Temps CN
précédent
Score sur
la course
Différence
395BLASCONicole0:47:3933453801+456
6886FRANTZFrancoise0:50:3628453579+734
1380DIEUDONNEMadeleine0:53:4842153366-849
145COUPATCatherine0:53:5327733361+588
5497COCAULTYvonne0:54:5830893295+206
3302JEANPIERREM-Therese0:57:3430143146+132
2557VOGTChristiane1:03:1033872867-520
701ABISSEGisele1:04:4829592795-164
16634BAUDOINAnnie1:08:2122442650+406
5033THIEBAULTMonique1:08:5242282630-1598
2546DESAINTJANAlice1:12:3520072495+488
8121LEBIAN DEROMEAnnie1:13:2021142470+356
17LEVEQUEPaulette1:17:0513912350+959
2182PROSTGisele1:21:4325372216-321
9AULAGNONMireille1:22:10N/A2204N/A
3619LAGOIDETColette1:22:1925672200-367
2680KIEFFERMireille1:22:5227202186-534
1106NATALIAnnie1:25:3127572118-639
14245RICHARDNicole1:25:4824632111-352
3185PASCAUDClaire1:27:5620522060+8
12059GROSJEANA-Marie1:28:2418902049+159
6443GEOFFROYNicole1:31:3023861979-407
8954BASTIEN-FATHNicole1:40:5319731795-178
1444BEGUINOTM-Louise1:44:2113901736+346
1098MULLERM-Anne1:44:2624051734-671
15894LUDEWIG-JAMESCarol2:14:1417371349-388
6826DUVOUXFranceN/A27200-2720

  Indice de confiance du circuit (moyenne des différences entre CN et score sur la course des 3 à 10 premiers) : 314






 Retour